アテネ の空港の天気 - METARとTAF

アテネ国際空港 ( LGAV / ATH ) - ギリシャ アテネ
飛行場実況気象(Metar)
観測時間01/16 20:20 EET (01/16 18:20 UTC)
風向・風速不定 1m/s
視程10km以上
天気現象
少しの雲 雲底高度 610m
気温4℃
湿度65%
気圧1027hPa
METARLGAV 161820Z VRB02KT 9999 FEW020 04/M02 Q1027 NOSIG
過去の天気等 Google飛行場航空写真 Wunderground天気予報

過去48時間のMETAR

飛行場予報(TAF)
発表時間: 1/16 19:00 EET (1/16 17:00 UTC)
予報対象時間: 16日20時 EET ~ 17日20時 EET
風向・風速不定 3m/s
視程10km以上
少しの雲 雲底高度 550m
全天の4割程度の雲 雲底高度 760m
17日8時 EET ~ 17日10時 EET に徐々に
風向・風速南西 6m/s
TAF LGAV 161700Z 1618/1718 VRB05KT 9999 FEW018 SCT025
BECMG 1706/1708 22012KT